createdAt,value
2022-10-19T00:01:26.054Z,8.23
2022-10-19T00:03:56.032Z,7.73
2022-10-19T00:06:32.226Z,8.07
2022-10-19T00:09:03.640Z,8.40
2022-10-19T00:11:32.323Z,8.10
2022-10-19T00:14:00.198Z,7.83
2022-10-19T00:16:30.872Z,7.50
2022-10-19T00:19:00.968Z,7.53
2022-10-19T00:21:28.333Z,7.67
2022-10-19T00:23:55.770Z,8.33
2022-10-19T00:26:23.332Z,7.53
2022-10-19T00:28:54.352Z,8.47
2022-10-19T00:31:22.140Z,7.13
2022-10-19T00:33:49.530Z,8.40
2022-10-19T00:36:29.022Z,8.27
2022-10-19T00:38:57.188Z,7.07
2022-10-19T00:41:26.759Z,7.13
2022-10-19T00:44:01.550Z,7.47
2022-10-19T00:46:32.270Z,8.30
2022-10-19T00:49:09.884Z,7.57
2022-10-19T00:51:42.165Z,8.07
2022-10-19T00:54:10.275Z,7.13
2022-10-19T00:56:40.214Z,7.57
2022-10-19T00:59:09.063Z,6.83
2022-10-19T01:01:36.688Z,6.77
2022-10-19T01:04:04.794Z,7.20
2022-10-19T01:06:32.910Z,6.53
2022-10-19T01:09:00.204Z,6.13
2022-10-19T01:11:57.041Z,6.20
2022-10-19T01:14:48.675Z,5.97
2022-10-19T01:17:59.983Z,5.97
2022-10-19T01:20:48.439Z,5.63
2022-10-19T01:23:34.293Z,6.23
2022-10-19T01:26:04.609Z,5.00
2022-10-19T01:29:06.534Z,5.40
2022-10-19T01:31:36.887Z,6.33
2022-10-19T01:34:16.417Z,4.73
2022-10-19T01:37:08.167Z,5.27
2022-10-19T01:39:53.506Z,4.87
2022-10-19T01:42:36.009Z,5.53
2022-10-19T01:45:23.750Z,5.40
2022-10-19T01:48:06.871Z,5.50
2022-10-19T01:50:41.165Z,4.50
2022-10-19T01:53:10.944Z,5.13
2022-10-19T01:55:42.841Z,4.97
2022-10-19T01:58:14.411Z,5.50
2022-10-19T02:00:44.192Z,4.57
2022-10-19T02:03:13.134Z,6.93
2022-10-19T02:05:41.772Z,4.57
2022-10-19T02:08:16.922Z,4.50
2022-10-19T02:10:45.742Z,4.70
2022-10-19T02:13:15.644Z,5.30
2022-10-19T02:15:47.511Z,4.67
2022-10-19T02:18:19.727Z,4.60
2022-10-19T02:20:47.217Z,5.17
2022-10-19T02:23:18.684Z,4.77
2022-10-19T02:25:45.908Z,5.23
2022-10-19T02:28:13.364Z,4.37
2022-10-19T02:30:40.602Z,4.07
2022-10-19T02:33:08.018Z,5.30
2022-10-19T02:35:35.238Z,5.47
2022-10-19T02:38:04.609Z,4.70
2022-10-19T02:40:36.577Z,4.63
2022-10-19T02:43:13.001Z,5.17
2022-10-19T02:46:06.571Z,4.60
2022-10-19T02:48:35.426Z,5.00
2022-10-19T02:51:02.603Z,4.70
2022-10-19T02:53:30.100Z,4.50
2022-10-19T02:55:57.294Z,5.17
2022-10-19T02:58:24.671Z,4.60
2022-10-19T03:00:51.849Z,4.00
2022-10-19T03:03:19.156Z,4.60
2022-10-19T03:05:46.229Z,4.70
2022-10-19T03:08:13.570Z,4.43
2022-10-19T03:10:40.640Z,3.90
2022-10-19T03:13:07.923Z,5.27
2022-10-19T03:15:35.116Z,5.67
2022-10-19T03:18:02.550Z,6.00
2022-10-19T03:20:29.599Z,4.13
2022-10-19T03:22:56.903Z,4.77
2022-10-19T03:25:24.013Z,5.13
2022-10-19T03:27:53.778Z,4.90
2022-10-19T03:30:20.908Z,5.07
2022-10-19T03:32:48.305Z,4.23
2022-10-19T03:35:15.426Z,4.87
2022-10-19T03:37:42.695Z,4.80
2022-10-19T03:40:10.157Z,4.10
2022-10-19T03:42:37.420Z,7.97
2022-10-19T03:45:05.097Z,4.77
2022-10-19T03:47:32.692Z,6.00
2022-10-19T03:50:00.025Z,5.20
2022-10-19T03:52:27.317Z,4.23
2022-10-19T03:54:54.560Z,4.37
2022-10-19T03:57:21.887Z,6.67
2022-10-19T03:59:49.670Z,4.67
2022-10-19T04:02:16.927Z,6.37
2022-10-19T04:04:44.001Z,4.87
2022-10-19T04:07:11.437Z,4.10
2022-10-19T04:09:39.591Z,4.43
2022-10-19T04:12:06.947Z,4.20
2022-10-19T04:14:52.596Z,3.67
2022-10-19T04:17:22.254Z,3.37
2022-10-19T04:19:49.792Z,4.63
2022-10-19T04:22:17.139Z,4.13
2022-10-19T04:24:44.293Z,3.90
2022-10-19T04:27:11.629Z,4.17
2022-10-19T04:29:38.713Z,4.57
2022-10-19T04:32:06.212Z,4.47
2022-10-19T04:34:35.275Z,6.53
2022-10-19T04:37:05.112Z,4.97
2022-10-19T04:39:32.346Z,4.07
2022-10-19T04:41:59.809Z,5.33
2022-10-19T04:44:26.931Z,4.50
2022-10-19T04:46:54.681Z,4.67
2022-10-19T04:49:21.801Z,4.53
2022-10-19T04:51:49.194Z,4.80
2022-10-19T04:54:16.449Z,4.00
2022-10-19T04:56:43.785Z,4.23
2022-10-19T04:59:10.959Z,4.70
2022-10-19T05:01:40.413Z,4.23
2022-10-19T05:04:10.897Z,5.40
2022-10-19T05:06:38.584Z,5.53
2022-10-19T05:09:05.730Z,5.17
2022-10-19T05:11:33.174Z,4.63
2022-10-19T05:14:00.353Z,4.37
2022-10-19T05:16:27.755Z,5.73
2022-10-19T05:18:56.859Z,4.17
2022-10-19T05:21:24.763Z,4.57
2022-10-19T05:23:53.470Z,4.77
2022-10-19T05:26:23.103Z,3.97
2022-10-19T05:28:56.765Z,4.40
2022-10-19T05:31:28.006Z,5.97
2022-10-19T05:33:58.590Z,5.00
2022-10-19T05:36:28.735Z,8.43
2022-10-19T05:38:57.586Z,6.23
2022-10-19T05:41:26.086Z,8.93
2022-10-19T05:43:55.860Z,4.33
2022-10-19T05:46:23.526Z,4.33
2022-10-19T05:48:50.754Z,4.70
2022-10-19T05:51:20.054Z,5.00
2022-10-19T05:53:47.627Z,6.27
2022-10-19T05:56:20.055Z,5.00
2022-10-19T05:58:47.665Z,5.20
2022-10-19T06:01:16.047Z,6.57
2022-10-19T06:03:43.224Z,5.00
2022-10-19T06:06:10.945Z,5.17
2022-10-19T06:08:39.236Z,6.23
2022-10-19T06:11:09.095Z,7.63
2022-10-19T06:13:37.037Z,7.87
2022-10-19T06:16:05.727Z,6.90
2022-10-19T06:18:34.030Z,6.27
2022-10-19T06:21:06.668Z,5.57
2022-10-19T06:23:34.567Z,6.07
2022-10-19T06:26:10.868Z,5.53
2022-10-19T06:28:39.770Z,6.87
2022-10-19T06:31:09.304Z,5.83
2022-10-19T06:33:36.873Z,5.77
2022-10-19T06:36:13.851Z,5.97
2022-10-19T06:38:42.360Z,4.37
2022-10-19T06:41:10.920Z,6.17
2022-10-19T06:43:38.713Z,5.97
2022-10-19T06:46:17.528Z,5.63
2022-10-19T06:48:44.854Z,4.43
2022-10-19T06:51:13.690Z,4.60
2022-10-19T06:53:40.895Z,5.33
2022-10-19T06:56:08.497Z,5.73
2022-10-19T06:58:39.900Z,7.27
2022-10-19T07:01:09.048Z,7.50
2022-10-19T07:03:37.030Z,11.60
2022-10-19T07:06:10.740Z,10.23
2022-10-19T07:08:39.571Z,7.60
2022-10-19T07:11:10.585Z,8.33
2022-10-19T07:13:38.024Z,9.80
2022-10-19T07:16:07.164Z,9.47
2022-10-19T07:18:36.198Z,10.53
2022-10-19T07:21:07.065Z,8.63
2022-10-19T07:23:37.008Z,9.93
2022-10-19T07:26:12.197Z,10.03
2022-10-19T07:28:41.643Z,9.20
2022-10-19T07:31:12.497Z,7.73
2022-10-19T07:33:39.947Z,6.47
2022-10-19T07:36:09.612Z,5.97
2022-10-19T07:38:37.361Z,6.20
2022-10-19T07:41:07.969Z,7.47
2022-10-19T07:43:35.642Z,6.07
2022-10-19T07:46:06.362Z,5.20
2022-10-19T07:48:35.168Z,7.17
2022-10-19T07:51:05.898Z,7.30
2022-10-19T07:53:34.434Z,6.30
2022-10-19T07:56:10.603Z,5.87
2022-10-19T07:58:38.633Z,5.03
2022-10-19T08:01:08.691Z,6.93
2022-10-19T08:04:31.648Z,6.97
2022-10-19T08:06:24.715Z,5.07
2022-10-19T08:08:53.356Z,5.80
2022-10-19T08:11:22.537Z,7.47
2022-10-19T08:13:50.081Z,5.43
2022-10-19T08:16:26.145Z,5.17
2022-10-19T08:18:57.562Z,4.27
2022-10-19T08:21:26.636Z,4.80
2022-10-19T08:23:54.718Z,4.87
2022-10-19T08:26:22.451Z,10.87
2022-10-19T08:28:49.743Z,12.87
2022-10-19T08:31:20.590Z,8.17
2022-10-19T08:33:50.149Z,8.03
2022-10-19T08:36:20.118Z,12.87
2022-10-19T08:38:50.135Z,9.07
2022-10-19T08:41:42.569Z,6.77
2022-10-19T08:44:22.185Z,2.40
2022-10-19T08:46:56.849Z,5.77
2022-10-19T08:49:27.035Z,5.43
2022-10-19T08:52:24.450Z,7.47
2022-10-19T08:55:04.809Z,2.80
2022-10-19T08:57:54.252Z,3.17
2022-10-19T09:03:37.667Z,3.38
2022-10-19T09:06:41.925Z,2.45
2022-10-19T09:09:13.858Z,4.93
2022-10-19T09:11:47.475Z,1.35
2022-10-19T09:14:40.945Z,1.48
2022-10-19T09:17:14.234Z,1.70
2022-10-19T09:19:41.679Z,1.38
2022-10-19T09:22:15.935Z,1.60
2022-10-19T09:24:57.416Z,2.00
2022-10-19T09:27:27.143Z,2.03
2022-10-19T09:30:02.656Z,0.93
2022-10-19T09:32:35.135Z,0.88
2022-10-19T09:35:33.710Z,1.70
2022-10-19T09:38:01.306Z,1.20
2022-10-19T09:40:30.667Z,17.58
2022-10-19T09:42:59.299Z,8.30
2022-10-19T09:45:40.758Z,1.55
2022-10-19T09:48:27.805Z,1.42
2022-10-19T09:50:59.619Z,1.38
2022-10-19T09:53:28.211Z,0.80
2022-10-19T09:56:04.966Z,0.90
2022-10-19T09:58:33.315Z,2.72
2022-10-19T10:01:03.068Z,2.20
2022-10-19T10:03:43.760Z,1.20
2022-10-19T10:06:15.866Z,2.20
2022-10-19T10:08:58.019Z,2.10
2022-10-19T10:11:30.529Z,2.00
2022-10-19T10:14:01.006Z,0.90
2022-10-19T10:16:30.749Z,0.82
2022-10-19T10:19:01.828Z,1.20
2022-10-19T10:21:35.864Z,1.38
2022-10-19T10:24:12.391Z,0.95
2022-10-19T10:26:46.489Z,0.90
2022-10-19T10:29:23.098Z,2.40
2022-10-19T10:32:08.270Z,1.42
2022-10-19T10:34:49.799Z,1.15
2022-10-19T10:37:28.165Z,0.70
2022-10-19T10:40:00.387Z,0.80
2022-10-19T10:42:41.008Z,0.63
2022-10-19T10:45:20.999Z,1.20
2022-10-19T10:47:49.457Z,1.33
2022-10-19T10:50:26.080Z,0.75
2022-10-19T10:53:05.577Z,1.08
2022-10-19T10:55:34.018Z,1.20
2022-10-19T10:58:17.515Z,2.65
2022-10-19T11:00:45.517Z,3.50
2022-10-19T11:03:19.733Z,1.73
2022-10-19T11:06:08.427Z,2.35
2022-10-19T11:08:48.502Z,1.40
2022-10-19T11:11:21.216Z,2.08
2022-10-19T11:14:22.626Z,2.17
2022-10-19T11:16:52.810Z,1.80
2022-10-19T11:19:27.455Z,2.55
2022-10-19T11:22:10.315Z,1.65
2022-10-19T11:24:48.600Z,4.00
2022-10-19T11:27:56.103Z,4.30
2022-10-19T11:30:25.192Z,1.83
2022-10-19T11:33:36.791Z,2.60
2022-10-19T11:36:23.682Z,5.00
2022-10-19T11:39:02.972Z,2.75
2022-10-19T11:41:45.690Z,2.92
2022-10-19T11:44:19.349Z,1.15
2022-10-19T11:47:05.164Z,3.08
2022-10-19T11:49:42.578Z,1.58
2022-10-19T11:52:19.602Z,1.83
2022-10-19T11:55:28.675Z,2.10
2022-10-19T11:58:17.861Z,2.38
2022-10-19T12:00:59.187Z,2.17
2022-10-19T12:03:57.625Z,1.80
2022-10-19T12:06:34.308Z,1.00
2022-10-19T12:09:10.576Z,1.15
2022-10-19T12:12:09.004Z,2.15
2022-10-19T12:14:40.814Z,1.60
2022-10-19T12:17:30.772Z,3.30
2022-10-19T12:20:04.657Z,1.40
2022-10-19T12:22:34.299Z,1.60
2022-10-19T12:25:02.351Z,3.60
2022-10-19T12:27:38.489Z,2.33
2022-10-19T12:30:15.400Z,3.03
2022-10-19T12:32:58.447Z,2.53
2022-10-19T12:35:38.707Z,1.90
2022-10-19T12:38:27.183Z,0.70
2022-10-19T12:41:08.702Z,2.10
2022-10-19T12:43:46.403Z,1.20
2022-10-19T12:46:26.482Z,1.58
2022-10-19T12:49:30.617Z,1.48
2022-10-19T12:52:00.693Z,0.73
2022-10-19T12:54:36.968Z,1.52
2022-10-19T12:57:22.825Z,1.27
2022-10-19T13:00:00.751Z,0.40
2022-10-19T13:05:06.286Z,0.90
2022-10-19T13:07:35.959Z,2.70
2022-10-19T13:10:18.729Z,0.70
2022-10-19T13:12:47.833Z,1.80
2022-10-19T13:15:36.696Z,1.48
2022-10-19T13:18:16.978Z,3.08
2022-10-19T13:20:53.839Z,3.25
2022-10-19T13:23:26.965Z,2.30
2022-10-19T13:26:32.010Z,2.30
2022-10-19T13:29:00.609Z,2.00
2022-10-19T13:31:30.566Z,1.40
2022-10-19T13:33:58.354Z,0.85
2022-10-19T13:36:26.289Z,0.57
2022-10-19T13:38:59.667Z,1.02
2022-10-19T13:41:44.440Z,0.95
2022-10-19T13:44:16.161Z,0.90
2022-10-19T13:47:02.465Z,1.23
2022-10-19T13:49:48.521Z,1.02
2022-10-19T13:52:30.604Z,1.23
2022-10-19T13:55:28.675Z,0.90
2022-10-19T13:58:22.491Z,0.93
2022-10-19T14:01:14.173Z,1.20
2022-10-19T14:04:04.116Z,1.60
2022-10-19T14:06:54.519Z,2.63
2022-10-19T14:09:28.540Z,1.05
2022-10-19T14:12:09.012Z,0.88
2022-10-19T14:14:43.109Z,1.60
2022-10-19T14:17:24.757Z,0.68
2022-10-19T14:19:55.427Z,2.33
2022-10-19T14:22:27.537Z,1.10
2022-10-19T14:25:01.484Z,2.55
2022-10-19T14:27:30.758Z,1.88
2022-10-19T14:29:58.420Z,2.67
2022-10-19T14:32:28.692Z,2.53
2022-10-19T14:37:32.863Z,2.60
2022-10-19T14:40:28.119Z,1.38
2022-10-19T14:42:57.880Z,1.52
2022-10-19T14:45:28.650Z,2.33
2022-10-19T14:48:05.213Z,1.60
2022-10-19T14:50:55.928Z,2.07
2022-10-19T14:53:47.709Z,4.72
2022-10-19T14:56:24.484Z,5.27
2022-10-19T14:59:14.674Z,4.33
2022-10-19T15:01:49.344Z,3.10
2022-10-19T15:04:26.641Z,2.03
2022-10-19T15:06:55.314Z,1.33
2022-10-19T15:09:36.977Z,2.27
2022-10-19T15:12:20.129Z,3.33
2022-10-19T15:14:48.706Z,3.17
2022-10-19T15:17:28.537Z,3.03
2022-10-19T15:20:00.213Z,3.67
2022-10-19T15:22:34.024Z,4.40
2022-10-19T15:25:07.978Z,5.93
2022-10-19T15:27:37.512Z,17.03
2022-10-19T15:30:21.222Z,14.27
2022-10-19T15:33:02.086Z,6.70
2022-10-19T15:35:31.013Z,2.73
2022-10-19T15:38:11.724Z,5.10
2022-10-19T15:40:42.000Z,6.20
2022-10-19T15:43:31.133Z,11.17
2022-10-19T15:46:13.515Z,12.20
2022-10-19T15:48:41.461Z,9.53
2022-10-19T15:51:27.168Z,11.00
2022-10-19T15:54:17.205Z,12.27
2022-10-19T15:56:46.935Z,11.80
2022-10-19T15:59:20.467Z,18.47
2022-10-19T16:01:53.674Z,13.17
2022-10-19T16:04:22.286Z,32.73
2022-10-19T16:06:49.667Z,37.97
2022-10-19T16:09:21.853Z,35.03
2022-10-19T16:11:50.425Z,29.83
2022-10-19T16:16:51.079Z,27.43
2022-10-19T16:19:18.358Z,28.73
2022-10-19T16:21:50.105Z,32.00
2022-10-19T16:24:17.617Z,43.70
2022-10-19T16:26:45.046Z,39.87
2022-10-19T16:29:12.806Z,34.23
2022-10-19T16:31:40.469Z,36.30
2022-10-19T16:34:09.015Z,37.93
2022-10-19T16:36:37.636Z,40.63
2022-10-19T16:39:05.026Z,42.10
2022-10-19T16:41:32.692Z,55.13
2022-10-19T16:44:00.110Z,56.47
2022-10-19T16:46:27.987Z,45.27
2022-10-19T16:48:55.254Z,48.40
2022-10-19T16:51:30.921Z,34.30
2022-10-19T16:53:59.115Z,21.30
2022-10-19T16:56:29.232Z,18.60
2022-10-19T16:59:00.120Z,18.00
2022-10-19T17:01:28.379Z,20.23
2022-10-19T17:03:56.374Z,23.67
2022-10-19T17:06:24.834Z,25.10
2022-10-19T17:09:29.773Z,23.07
2022-10-19T17:11:42.475Z,23.30
2022-10-19T17:14:12.536Z,24.13
2022-10-19T17:16:40.811Z,27.57
2022-10-19T17:19:09.156Z,26.60
2022-10-19T17:21:38.805Z,29.20
2022-10-19T17:24:08.509Z,27.23
2022-10-19T17:26:42.257Z,27.37
2022-10-19T17:29:10.346Z,30.50
2022-10-19T17:31:39.796Z,30.73
2022-10-19T17:34:08.540Z,80.40
2022-10-19T17:36:41.824Z,62.07
2022-10-19T17:39:12.554Z,51.47
2022-10-19T17:41:40.540Z,36.00
2022-10-19T17:44:07.817Z,30.27
2022-10-19T17:46:35.895Z,33.03
2022-10-19T17:49:04.473Z,42.43
2022-10-19T17:51:34.107Z,46.90
2022-10-19T17:54:04.825Z,47.30
2022-10-19T17:56:32.809Z,45.57
2022-10-19T17:59:03.233Z,40.97
2022-10-19T18:01:31.455Z,34.43
2022-10-19T18:03:59.158Z,43.93
2022-10-19T18:06:31.878Z,40.33
2022-10-19T18:09:01.354Z,33.60
2022-10-19T18:11:32.381Z,28.00
2022-10-19T18:14:01.534Z,26.27
2022-10-19T18:16:40.874Z,27.47
2022-10-19T18:19:09.320Z,26.70
2022-10-19T18:21:42.744Z,39.43
2022-10-19T18:24:15.355Z,39.70
2022-10-19T18:26:43.573Z,31.13
2022-10-19T18:29:15.674Z,26.07
2022-10-19T18:31:43.621Z,23.43
2022-10-19T18:34:15.532Z,20.17
2022-10-19T18:36:44.187Z,18.40
2022-10-19T18:39:14.061Z,16.13
2022-10-19T18:41:42.099Z,14.33
2022-10-19T18:44:13.097Z,14.40
2022-10-19T18:46:41.391Z,13.70
2022-10-19T18:49:09.499Z,13.33
2022-10-19T18:51:37.830Z,12.37
2022-10-19T18:54:06.061Z,13.27
2022-10-19T18:56:36.641Z,11.03
2022-10-19T18:59:05.338Z,11.33
2022-10-19T19:01:33.433Z,11.40
2022-10-19T19:04:07.172Z,10.27
2022-10-19T19:06:36.393Z,10.27
2022-10-19T19:09:08.058Z,8.63
2022-10-19T19:11:38.602Z,8.33
2022-10-19T19:14:11.878Z,8.40
2022-10-19T19:16:41.060Z,7.60
2022-10-19T19:19:12.904Z,7.40
2022-10-19T19:21:44.240Z,6.43
2022-10-19T19:24:15.525Z,6.93
2022-10-19T19:26:48.553Z,7.53
2022-10-19T19:29:16.983Z,6.53
2022-10-19T19:31:45.374Z,8.10
2022-10-19T19:34:14.772Z,7.83
2022-10-19T19:36:47.678Z,7.83
2022-10-19T19:39:18.909Z,7.97
2022-10-19T19:41:47.503Z,7.73
2022-10-19T19:44:15.751Z,7.10
2022-10-19T19:46:43.823Z,7.60
2022-10-19T19:49:14.428Z,7.70
2022-10-19T19:51:43.161Z,7.50
2022-10-19T19:54:11.726Z,6.77
2022-10-19T19:56:40.314Z,8.40
2022-10-19T19:59:08.101Z,7.53
2022-10-19T20:01:38.103Z,8.10
2022-10-19T20:04:06.540Z,8.97
2022-10-19T20:06:36.273Z,7.63
2022-10-19T20:09:04.930Z,6.93
2022-10-19T20:11:33.013Z,6.73
2022-10-19T20:14:00.789Z,6.10
2022-10-19T20:16:32.057Z,5.93
2022-10-19T20:19:04.995Z,7.30
2022-10-19T20:21:33.827Z,6.70
2022-10-19T20:24:01.966Z,6.63
2022-10-19T20:26:30.439Z,5.93
2022-10-19T20:28:58.240Z,4.83
2022-10-19T20:31:26.151Z,5.90
2022-10-19T20:33:54.068Z,7.57
2022-10-19T20:36:24.281Z,5.43
2022-10-19T20:38:54.391Z,6.67
2022-10-19T20:41:24.366Z,5.77
2022-10-19T20:43:53.822Z,5.60
2022-10-19T20:46:24.815Z,5.50
2022-10-19T20:48:52.736Z,5.37
2022-10-19T20:51:30.637Z,6.63
2022-10-19T20:54:02.117Z,6.13
2022-10-19T20:56:35.335Z,6.10
2022-10-19T20:59:09.143Z,5.63
2022-10-19T21:01:38.389Z,6.63
2022-10-19T21:04:07.691Z,7.60
2022-10-19T21:06:39.445Z,7.83
2022-10-19T21:09:07.323Z,9.00
2022-10-19T21:11:37.381Z,6.27
2022-10-19T21:14:07.789Z,5.00
2022-10-19T21:16:37.825Z,5.10
2022-10-19T21:19:08.623Z,5.20
2022-10-19T21:21:41.516Z,4.20
2022-10-19T21:24:12.982Z,4.83
2022-10-19T21:26:41.105Z,5.30
2022-10-19T21:29:09.862Z,5.43
2022-10-19T21:31:42.150Z,5.57
2022-10-19T21:34:20.223Z,5.40
2022-10-19T21:36:48.520Z,5.30
2022-10-19T21:39:16.312Z,5.47
2022-10-19T21:41:44.233Z,5.80
2022-10-19T21:44:11.873Z,6.13
2022-10-19T21:46:40.250Z,6.53
2022-10-19T21:49:07.820Z,7.57
2022-10-19T21:51:36.292Z,7.13
2022-10-19T21:54:05.953Z,7.20
2022-10-19T21:56:34.125Z,8.97
2022-10-19T21:59:01.751Z,7.77
2022-10-19T22:01:30.442Z,7.10
2022-10-19T22:03:59.077Z,6.50
2022-10-19T22:06:28.953Z,6.10
2022-10-19T22:08:57.350Z,6.53
2022-10-19T22:11:25.734Z,9.37
2022-10-19T22:13:58.103Z,10.57
2022-10-19T22:16:27.229Z,17.40
2022-10-19T22:18:55.473Z,19.27
2022-10-19T22:21:26.539Z,20.30
2022-10-19T22:23:56.153Z,22.17
2022-10-19T22:26:45.014Z,21.67
2022-10-19T22:29:12.310Z,17.07
2022-10-19T22:31:39.852Z,15.37
2022-10-19T22:34:10.103Z,15.73
2022-10-19T22:36:38.123Z,19.23
2022-10-19T22:39:05.989Z,21.83
2022-10-19T22:41:33.296Z,19.90
2022-10-19T22:44:01.086Z,18.03
2022-10-19T22:46:28.884Z,21.83
2022-10-19T22:48:56.583Z,21.20
2022-10-19T22:51:24.091Z,21.27
2022-10-19T22:53:51.639Z,20.00
2022-10-19T22:56:19.466Z,16.93
2022-10-19T22:58:47.144Z,17.17
2022-10-19T23:01:16.937Z,18.13
2022-10-19T23:03:45.079Z,18.37
2022-10-19T23:06:14.822Z,16.13
2022-10-19T23:08:43.560Z,15.43
2022-10-19T23:11:11.877Z,16.23
2022-10-19T23:13:39.767Z,15.70
2022-10-19T23:16:07.995Z,15.53
2022-10-19T23:18:37.625Z,14.87
2022-10-19T23:21:08.126Z,14.90
2022-10-19T23:23:37.093Z,13.30
2022-10-19T23:26:13.424Z,13.23
2022-10-19T23:28:42.467Z,12.80
2022-10-19T23:31:16.429Z,11.27
2022-10-19T23:33:44.173Z,11.07
2022-10-19T23:36:17.543Z,10.97
2022-10-19T23:38:46.334Z,10.03
2022-10-19T23:41:14.368Z,10.67
2022-10-19T23:43:42.006Z,10.20
2022-10-19T23:46:09.785Z,9.13
2022-10-19T23:48:37.734Z,9.90
2022-10-19T23:51:08.024Z,9.90
2022-10-19T23:53:40.769Z,10.73
2022-10-19T23:56:14.809Z,10.97
2022-10-19T23:58:42.407Z,10.37
